createdAt,value
2018-06-13T00:01:01.709Z,1.00
2018-06-13T00:03:34.871Z,0.90
2018-06-13T00:06:09.592Z,0.77
2018-06-13T00:08:46.551Z,0.90
2018-06-13T00:11:21.300Z,0.90
2018-06-13T00:14:16.255Z,1.10
2018-06-13T00:16:56.960Z,1.10
2018-06-13T00:19:34.197Z,1.57
2018-06-13T00:22:09.746Z,0.90
2018-06-13T00:24:44.085Z,1.03
2018-06-13T00:27:19.553Z,0.97
2018-06-13T00:29:59.501Z,0.77
2018-06-13T00:32:35.608Z,0.90
2018-06-13T00:35:09.704Z,0.67
2018-06-13T00:37:44.315Z,0.90
2018-06-13T00:43:49.293Z,0.80
2018-06-13T00:46:25.775Z,0.83
2018-06-13T00:48:59.889Z,0.93
2018-06-13T00:51:33.770Z,1.17
2018-06-13T00:54:14.743Z,1.10
2018-06-13T00:56:52.616Z,1.03
2018-06-13T00:59:26.916Z,1.00
2018-06-13T01:02:00.198Z,0.80
2018-06-13T01:04:33.940Z,1.30
2018-06-13T01:07:10.350Z,1.07
2018-06-13T01:09:45.091Z,0.80
2018-06-13T01:12:18.482Z,0.93
2018-06-13T01:14:51.789Z,0.90
2018-06-13T01:17:29.317Z,1.00
2018-06-13T01:20:03.184Z,1.13
2018-06-13T01:22:37.130Z,1.30
2018-06-13T01:25:11.993Z,0.83
2018-06-13T01:27:47.394Z,0.80
2018-06-13T01:30:29.108Z,1.10
2018-06-13T01:33:05.295Z,1.10
2018-06-13T01:35:41.104Z,0.93
2018-06-13T01:38:27.954Z,1.40
2018-06-13T01:41:03.206Z,1.00
2018-06-13T01:46:22.821Z,1.27
2018-06-13T01:49:03.457Z,1.00
2018-06-13T01:51:49.836Z,1.10
2018-06-13T01:54:23.238Z,1.20
2018-06-13T02:02:13.689Z,1.07
2018-06-13T02:04:54.421Z,1.10
2018-06-13T02:07:31.139Z,1.00
2018-06-13T02:10:09.312Z,0.90
2018-06-13T02:15:22.810Z,0.87
2018-06-13T02:17:58.484Z,0.90
2018-06-13T02:20:41.380Z,1.00
2018-06-13T02:23:21.112Z,0.87
2018-06-13T02:53:59.994Z,1.10
2018-06-13T02:56:43.807Z,1.13
2018-06-13T02:59:18.739Z,1.00
2018-06-13T03:01:53.672Z,1.00
2018-06-13T03:07:07.136Z,1.20
2018-06-13T03:12:22.664Z,1.20
2018-06-13T03:20:52.946Z,1.07
2018-06-13T03:23:28.697Z,1.17
2018-06-13T03:26:04.306Z,1.40
2018-06-13T03:28:38.185Z,1.07
2018-06-13T03:31:12.234Z,1.40
2018-06-13T03:33:53.522Z,1.07
2018-06-13T03:36:26.511Z,1.17
2018-06-13T03:39:05.945Z,1.50
2018-06-13T03:41:38.968Z,1.33
2018-06-13T03:44:12.012Z,0.97
2018-06-13T03:46:45.128Z,1.30
2018-06-13T03:49:18.439Z,1.40
2018-06-13T03:51:51.598Z,1.27
2018-06-13T03:54:25.311Z,1.37
2018-06-13T03:56:59.758Z,1.30
2018-06-13T03:59:35.242Z,1.40
2018-06-13T04:02:08.566Z,2.13
2018-06-13T04:04:43.603Z,2.20
2018-06-13T04:07:16.693Z,2.00
2018-06-13T04:09:50.706Z,1.80
2018-06-13T04:12:23.930Z,1.47
2018-06-13T04:14:57.160Z,1.57
2018-06-13T04:17:31.168Z,2.23
2018-06-13T04:20:06.536Z,2.30
2018-06-13T04:22:40.919Z,2.07
2018-06-13T04:25:14.950Z,1.63
2018-06-13T04:27:52.623Z,1.80
2018-06-13T04:30:27.822Z,1.40
2018-06-13T04:33:02.396Z,1.40
2018-06-13T04:35:35.659Z,1.57
2018-06-13T04:38:08.864Z,1.50
2018-06-13T04:40:42.815Z,1.63
2018-06-13T04:43:16.070Z,1.53
2018-06-13T04:45:49.488Z,1.40
2018-06-13T04:48:23.656Z,1.20
2018-06-13T04:50:56.976Z,1.57
2018-06-13T04:53:29.902Z,1.40
2018-06-13T04:56:02.987Z,1.60
2018-06-13T04:58:37.066Z,1.47
2018-06-13T05:01:14.176Z,1.80
2018-06-13T05:03:47.537Z,1.50
2018-06-13T05:06:21.402Z,1.53
2018-06-13T05:08:54.565Z,1.50
2018-06-13T05:11:29.339Z,1.47
2018-06-13T05:14:02.485Z,1.80
2018-06-13T05:16:35.525Z,1.80
2018-06-13T05:19:08.672Z,1.77
2018-06-13T05:21:41.890Z,1.73
2018-06-13T05:24:14.971Z,1.93
2018-06-13T05:26:48.315Z,1.50
2018-06-13T05:29:21.350Z,2.03
2018-06-13T05:31:54.703Z,1.90
2018-06-13T05:34:28.103Z,1.80
2018-06-13T05:37:01.210Z,1.67
2018-06-13T05:39:36.232Z,1.63
2018-06-13T05:42:18.473Z,1.60
2018-06-13T05:44:51.801Z,1.40
2018-06-13T05:47:27.036Z,1.67
2018-06-13T05:50:04.263Z,1.80
2018-06-13T05:52:39.326Z,1.80
2018-06-13T05:55:12.979Z,1.97
2018-06-13T05:57:47.151Z,2.40
2018-06-13T06:00:20.576Z,2.60
2018-06-13T06:02:59.016Z,2.23
2018-06-13T06:05:35.796Z,2.63
2018-06-13T06:08:10.068Z,2.47
2018-06-13T06:10:48.930Z,1.70
2018-06-13T06:13:22.003Z,1.73
2018-06-13T06:15:57.213Z,2.27
2018-06-13T06:18:30.360Z,2.00
2018-06-13T06:21:03.490Z,2.37
2018-06-13T06:23:36.598Z,1.80
2018-06-13T06:26:09.733Z,1.90
2018-06-13T06:28:42.798Z,1.90
2018-06-13T06:31:16.774Z,2.00
2018-06-13T06:33:49.791Z,1.90
2018-06-13T06:36:22.680Z,1.87
2018-06-13T06:38:55.550Z,1.90
2018-06-13T06:41:28.806Z,1.63
2018-06-13T06:44:01.740Z,1.80
2018-06-13T06:46:36.046Z,2.17
2018-06-13T06:49:09.745Z,2.30
2018-06-13T06:51:42.659Z,1.90
2018-06-13T06:54:15.589Z,2.07
2018-06-13T06:56:48.678Z,1.77
2018-06-13T06:59:22.215Z,2.37
2018-06-13T07:01:56.206Z,1.70
2018-06-13T07:04:29.181Z,1.83
2018-06-13T07:07:02.154Z,2.00
2018-06-13T07:09:36.237Z,1.90
2018-06-13T07:12:09.120Z,1.70
2018-06-13T07:14:42.288Z,1.83
2018-06-13T07:17:15.929Z,1.80
2018-06-13T07:19:48.859Z,2.10
2018-06-13T07:22:21.724Z,1.97
2018-06-13T07:24:55.624Z,1.80
2018-06-13T07:27:28.675Z,2.20
2018-06-13T07:30:01.665Z,1.80
2018-06-13T07:32:34.556Z,1.90
2018-06-13T07:35:07.443Z,1.90
2018-06-13T07:37:40.385Z,1.80
2018-06-13T07:40:13.372Z,1.60
2018-06-13T07:42:46.332Z,1.80
2018-06-13T14:37:18.394Z,1.40
2018-06-13T14:39:51.463Z,1.67
2018-06-13T14:42:24.511Z,1.53
2018-06-13T14:44:57.645Z,1.20
2018-06-13T14:47:30.713Z,1.70
2018-06-13T14:50:03.682Z,1.37
2018-06-13T14:52:36.827Z,1.43
2018-06-13T14:55:10.093Z,1.50
2018-06-13T14:57:42.930Z,1.23
2018-06-13T15:00:15.886Z,1.33
2018-06-13T15:02:48.847Z,1.20
2018-06-13T15:05:21.789Z,1.70
2018-06-13T15:07:54.742Z,1.80
2018-06-13T15:10:27.781Z,1.50
2018-06-13T15:13:10.470Z,1.60
2018-06-13T15:15:44.066Z,1.40
2018-06-13T15:18:17.031Z,1.80
2018-06-13T15:20:49.913Z,1.30
2018-06-13T15:23:22.867Z,1.50
2018-06-13T15:25:55.753Z,1.50
2018-06-13T15:28:28.651Z,1.40
2018-06-13T15:31:01.630Z,1.57
2018-06-13T15:33:34.608Z,1.50
2018-06-13T15:36:07.547Z,1.17
2018-06-13T15:38:40.466Z,1.47
2018-06-13T15:41:13.331Z,1.70
2018-06-13T15:43:46.322Z,1.27
2018-06-13T15:46:19.187Z,1.47
2018-06-13T15:48:52.073Z,1.30
2018-06-13T15:51:24.870Z,1.37
2018-06-13T15:53:57.782Z,1.50
2018-06-13T15:56:30.831Z,1.10
2018-06-13T15:59:04.087Z,0.97
2018-06-13T16:01:36.937Z,1.70
2018-06-13T16:04:09.773Z,1.33
2018-06-13T16:06:42.720Z,1.43
2018-06-13T16:09:15.611Z,1.50
2018-06-13T16:11:48.537Z,1.53
2018-06-13T16:14:21.480Z,1.50
2018-06-13T16:16:54.488Z,1.37
2018-06-13T16:19:27.420Z,0.93
2018-06-13T16:22:00.350Z,1.20
2018-06-13T16:24:33.432Z,1.10
2018-06-13T16:27:06.360Z,1.10
2018-06-13T16:29:39.227Z,1.00
2018-06-13T16:32:12.047Z,1.23
2018-06-13T16:34:44.955Z,0.87
2018-06-13T16:37:17.991Z,1.00
2018-06-13T16:39:50.933Z,1.30
2018-06-13T16:42:25.842Z,1.10
2018-06-13T16:44:58.759Z,1.30
2018-06-13T16:47:32.280Z,1.03
2018-06-13T16:50:09.528Z,0.93
2018-06-13T16:52:55.784Z,1.03
2018-06-13T16:55:28.765Z,1.27
2018-06-13T16:58:01.681Z,1.30
2018-06-13T17:00:34.674Z,1.17
2018-06-13T17:03:07.679Z,0.73
2018-06-13T17:05:40.598Z,0.80
2018-06-13T17:08:13.562Z,0.77
2018-06-13T17:10:46.406Z,0.60
2018-06-13T17:13:19.411Z,0.60
2018-06-13T17:15:52.339Z,0.50
2018-06-13T17:18:25.250Z,0.40
2018-06-13T17:20:58.962Z,0.50
2018-06-13T17:23:31.856Z,0.30
2018-06-13T17:26:04.709Z,0.70
2018-06-13T17:28:37.715Z,0.30
2018-06-13T17:31:10.705Z,0.40
2018-06-13T17:33:43.630Z,1.33
2018-06-13T17:36:16.554Z,0.50
2018-06-13T17:38:49.540Z,0.40
2018-06-13T17:41:22.402Z,0.50
2018-06-13T17:43:55.464Z,0.40
2018-06-13T17:46:28.374Z,0.40
2018-06-13T17:49:01.264Z,0.30
2018-06-13T17:51:34.137Z,0.30
2018-06-13T17:54:07.090Z,0.40
2018-06-13T17:56:40.091Z,0.23
2018-06-13T17:59:12.993Z,0.40
2018-06-13T18:01:45.910Z,0.30
2018-06-13T18:04:18.866Z,0.40
2018-06-13T18:06:51.713Z,0.40
2018-06-13T18:09:24.525Z,0.30
2018-06-13T18:11:57.504Z,0.33
2018-06-13T18:14:30.349Z,0.30
2018-06-13T18:17:03.375Z,0.30
2018-06-13T18:19:36.239Z,0.20
2018-06-13T18:22:09.498Z,0.30
2018-06-13T18:24:42.430Z,0.30
2018-06-13T18:27:15.641Z,0.50
2018-06-13T18:29:48.983Z,0.30
2018-06-13T18:32:23.148Z,0.30
2018-06-13T18:34:56.229Z,0.30
2018-06-13T18:37:29.849Z,0.20
2018-06-13T18:40:03.323Z,0.30
2018-06-13T18:42:36.940Z,0.57
2018-06-13T18:45:10.424Z,0.30
2018-06-13T18:47:43.910Z,0.40
2018-06-13T18:50:17.351Z,0.40
2018-06-13T18:52:50.776Z,0.57
2018-06-13T18:55:27.839Z,0.27
2018-06-13T18:58:01.137Z,0.40
2018-06-13T19:00:34.414Z,0.40
2018-06-13T19:03:07.535Z,0.33
2018-06-13T19:05:43.687Z,0.30
2018-06-13T19:08:20.132Z,0.40
2018-06-13T19:10:53.216Z,0.30
2018-06-13T19:13:27.702Z,0.30
2018-06-13T19:16:02.849Z,0.20
2018-06-13T19:18:35.836Z,0.20
2018-06-13T19:21:09.163Z,0.30
2018-06-13T19:23:42.123Z,0.20
2018-06-13T19:26:15.115Z,0.23
2018-06-13T19:28:47.990Z,0.33
2018-06-13T19:31:21.021Z,0.13
2018-06-13T19:33:54.162Z,0.23
2018-06-13T19:36:27.041Z,0.37
2018-06-13T19:39:00.321Z,0.23
2018-06-13T19:41:33.157Z,0.10
2018-06-13T19:44:06.081Z,0.20
2018-06-13T19:46:39.027Z,0.10
2018-06-13T19:49:11.926Z,0.30
2018-06-13T19:51:44.838Z,0.20
2018-06-13T19:54:21.700Z,0.30
2018-06-13T19:56:54.602Z,0.30
2018-06-13T19:59:27.455Z,0.20
2018-06-13T20:02:00.290Z,0.43
2018-06-13T20:04:37.360Z,0.43
2018-06-13T20:07:10.412Z,0.30
2018-06-13T20:09:43.390Z,0.20
2018-06-13T20:12:42.108Z,0.30
2018-06-13T20:15:19.298Z,0.20
2018-06-13T20:17:56.301Z,0.40
2018-06-13T20:20:29.394Z,0.10
2018-06-13T20:23:02.381Z,0.33
2018-06-13T20:25:39.415Z,0.30
2018-06-13T20:28:16.265Z,0.20
2018-06-13T20:30:53.196Z,0.30
2018-06-13T20:33:26.179Z,0.20
2018-06-13T20:35:59.139Z,0.20
2018-06-13T20:38:32.400Z,0.20
2018-06-13T20:41:05.399Z,0.20
2018-06-13T20:43:39.295Z,0.30
2018-06-13T20:46:13.026Z,0.23
2018-06-13T20:48:50.110Z,0.33
2018-06-13T20:51:23.185Z,0.20
2018-06-13T20:53:56.236Z,0.40
2018-06-13T20:56:29.372Z,0.50
2018-06-13T20:59:02.352Z,0.20
2018-06-13T21:01:35.274Z,0.27
2018-06-13T21:04:08.148Z,0.40
2018-06-13T21:06:41.672Z,0.50
2018-06-13T21:09:15.222Z,0.30
2018-06-13T21:11:48.220Z,0.20
2018-06-13T21:14:21.105Z,0.40
2018-06-13T21:16:54.025Z,0.30
2018-06-13T21:19:26.931Z,0.50
2018-06-13T21:21:59.776Z,0.50
2018-06-13T21:24:33.163Z,0.30
2018-06-13T21:27:06.301Z,0.37
2018-06-13T21:29:39.221Z,0.50
2018-06-13T21:32:12.150Z,0.50
2018-06-13T21:34:45.216Z,0.57
2018-06-13T21:37:18.170Z,0.40
2018-06-13T21:39:51.215Z,0.40
2018-06-13T21:42:24.181Z,0.40
2018-06-13T21:44:57.167Z,0.40
2018-06-13T21:47:30.173Z,0.40
2018-06-13T21:50:03.032Z,0.60
2018-06-13T21:52:36.648Z,0.80
2018-06-13T21:55:09.612Z,0.50
2018-06-13T21:57:42.531Z,1.00
2018-06-13T22:00:15.640Z,1.10
2018-06-13T22:02:48.667Z,1.20
2018-06-13T22:05:21.591Z,1.07
2018-06-13T22:07:54.505Z,0.90
2018-06-13T22:10:27.495Z,1.00
2018-06-13T22:13:01.509Z,1.03
2018-06-13T22:15:34.413Z,1.00
2018-06-13T22:18:07.468Z,1.07
2018-06-13T22:20:40.454Z,1.00
2018-06-13T22:23:13.493Z,1.00
2018-06-13T22:25:46.965Z,0.70
2018-06-13T22:28:19.856Z,2.60
2018-06-13T22:30:52.976Z,1.40
2018-06-13T22:33:25.980Z,1.60
2018-06-13T22:35:59.734Z,1.33
2018-06-13T22:38:32.921Z,1.20
2018-06-13T22:41:05.752Z,1.00
2018-06-13T22:43:38.761Z,1.00
2018-06-13T22:46:11.750Z,1.20
2018-06-13T22:48:44.714Z,1.33
2018-06-13T22:51:18.270Z,0.90
2018-06-13T22:53:51.242Z,0.80
2018-06-13T22:56:24.258Z,0.70
2018-06-13T22:58:57.219Z,0.93
2018-06-13T23:01:30.179Z,0.80
2018-06-13T23:04:03.114Z,1.00
2018-06-13T23:06:36.046Z,0.83
2018-06-13T23:09:10.743Z,0.90
2018-06-13T23:11:43.737Z,0.60
2018-06-13T23:14:16.680Z,0.60
2018-06-13T23:16:49.658Z,0.50
2018-06-13T23:19:22.715Z,0.70
2018-06-13T23:21:55.608Z,0.70
2018-06-13T23:24:28.503Z,0.80
2018-06-13T23:27:01.391Z,0.60
2018-06-13T23:29:34.229Z,0.50
2018-06-13T23:32:07.225Z,0.70
2018-06-13T23:34:40.131Z,0.80
2018-06-13T23:37:12.971Z,0.60
2018-06-13T23:39:45.822Z,0.70
2018-06-13T23:42:19.100Z,0.83
2018-06-13T23:44:51.995Z,0.77
2018-06-13T23:47:24.943Z,0.60
2018-06-13T23:49:57.903Z,0.60
2018-06-13T23:52:30.923Z,0.50
2018-06-13T23:55:03.840Z,0.70
2018-06-13T23:57:36.788Z,0.90
